sensor_id;sensor_type;location;lat;lon;timestamp;pressure;altitude;pressure_sealevel;temperature;humidity
79586;BME280;69054;50.866;4.636;2023-04-15T00:01:58;100314.00;;;5.95;84.41
79586;BME280;69054;50.866;4.636;2023-04-15T00:04:24;100316.91;;;5.93;84.89
79586;BME280;69054;50.866;4.636;2023-04-15T00:06:51;100319.63;;;5.93;84.87
79586;BME280;69054;50.866;4.636;2023-04-15T00:09:20;100318.97;;;5.91;84.94
79586;BME280;69054;50.866;4.636;2023-04-15T00:11:45;100317.06;;;5.92;84.87
79586;BME280;69054;50.866;4.636;2023-04-15T00:14:11;100318.13;;;5.91;84.65
79586;BME280;69054;50.866;4.636;2023-04-15T00:16:38;100316.41;;;5.90;84.64
79586;BME280;69054;50.866;4.636;2023-04-15T00:19:04;100317.44;;;5.89;84.39
79586;BME280;69054;50.866;4.636;2023-04-15T00:21:29;100316.53;;;5.96;85.02
79586;BME280;69054;50.866;4.636;2023-04-15T00:23:55;100318.22;;;6.06;84.79
79586;BME280;69054;50.866;4.636;2023-04-15T00:26:20;100313.13;;;6.11;84.40
79586;BME280;69054;50.866;4.636;2023-04-15T00:28:46;100313.97;;;6.11;84.28
79586;BME280;69054;50.866;4.636;2023-04-15T00:31:12;100311.44;;;6.10;83.99
79586;BME280;69054;50.866;4.636;2023-04-15T00:33:37;100318.06;;;6.07;83.60
79586;BME280;69054;50.866;4.636;2023-04-15T00:36:03;100304.66;;;6.06;83.73
79586;BME280;69054;50.866;4.636;2023-04-15T00:38:30;100314.84;;;6.03;83.81
79586;BME280;69054;50.866;4.636;2023-04-15T00:40:55;100307.72;;;6.02;83.37
79586;BME280;69054;50.866;4.636;2023-04-15T00:43:22;100314.19;;;6.01;83.71
79586;BME280;69054;50.866;4.636;2023-04-15T00:45:47;100313.16;;;6.02;83.58
79586;BME280;69054;50.866;4.636;2023-04-15T00:48:13;100310.44;;;6.02;84.15
79586;BME280;69054;50.866;4.636;2023-04-15T00:50:38;100312.97;;;6.04;84.18
79586;BME280;69054;50.866;4.636;2023-04-15T00:53:03;100309.25;;;6.05;83.74
79586;BME280;69054;50.866;4.636;2023-04-15T00:55:29;100308.22;;;6.06;83.26
79586;BME280;69054;50.866;4.636;2023-04-15T00:57:56;100309.59;;;6.10;83.59
79586;BME280;69054;50.866;4.636;2023-04-15T01:00:21;100313.94;;;6.19;85.46
79586;BME280;69054;50.866;4.636;2023-04-15T01:02:47;100312.34;;;6.25;84.15
79586;BME280;69054;50.866;4.636;2023-04-15T01:05:13;100321.81;;;6.29;84.88
79586;BME280;69054;50.866;4.636;2023-04-15T01:07:41;100313.84;;;6.36;84.51
79586;BME280;69054;50.866;4.636;2023-04-15T01:10:07;100315.31;;;6.38;84.90
79586;BME280;69054;50.866;4.636;2023-04-15T01:12:33;100311.22;;;6.43;85.33
79586;BME280;69054;50.866;4.636;2023-04-15T01:14:59;100307.50;;;6.44;85.08
79586;BME280;69054;50.866;4.636;2023-04-15T01:17:25;100316.28;;;6.46;85.74
79586;BME280;69054;50.866;4.636;2023-04-15T01:19:50;100308.63;;;6.49;85.76
79586;BME280;69054;50.866;4.636;2023-04-15T01:22:16;100309.31;;;6.51;86.38
79586;BME280;69054;50.866;4.636;2023-04-15T01:24:49;100307.25;;;6.53;85.04
79586;BME280;69054;50.866;4.636;2023-04-15T01:27:16;100308.44;;;6.51;84.99
79586;BME280;69054;50.866;4.636;2023-04-15T01:29:41;100306.47;;;6.45;85.44
79586;BME280;69054;50.866;4.636;2023-04-15T01:32:07;100307.00;;;6.40;86.17
79586;BME280;69054;50.866;4.636;2023-04-15T01:34:33;100304.28;;;6.40;86.38
79586;BME280;69054;50.866;4.636;2023-04-15T01:36:58;100304.78;;;6.44;86.34
79586;BME280;69054;50.866;4.636;2023-04-15T01:39:23;100300.00;;;6.46;87.19
79586;BME280;69054;50.866;4.636;2023-04-15T01:41:49;100300.00;;;6.46;86.60
79586;BME280;69054;50.866;4.636;2023-04-15T01:44:14;100297.00;;;6.41;86.80
79586;BME280;69054;50.866;4.636;2023-04-15T01:46:39;100294.84;;;6.36;86.69
79586;BME280;69054;50.866;4.636;2023-04-15T01:49:05;100298.94;;;6.32;86.52
79586;BME280;69054;50.866;4.636;2023-04-15T01:51:30;100290.09;;;6.30;87.72
79586;BME280;69054;50.866;4.636;2023-04-15T01:53:56;100290.72;;;6.40;88.63
79586;BME280;69054;50.866;4.636;2023-04-15T01:56:21;100288.50;;;6.44;86.72
79586;BME280;69054;50.866;4.636;2023-04-15T01:58:48;100295.13;;;6.41;87.89
79586;BME280;69054;50.866;4.636;2023-04-15T02:01:13;100288.53;;;6.35;88.04
79586;BME280;69054;50.866;4.636;2023-04-15T02:03:41;100288.25;;;6.30;87.70
79586;BME280;69054;50.866;4.636;2023-04-15T02:06:06;100291.31;;;6.27;88.03
79586;BME280;69054;50.866;4.636;2023-04-15T02:08:32;100292.53;;;6.25;88.74
79586;BME280;69054;50.866;4.636;2023-04-15T02:10:57;100290.34;;;6.20;88.69
79586;BME280;69054;50.866;4.636;2023-04-15T02:13:23;100288.81;;;6.17;88.68
79586;BME280;69054;50.866;4.636;2023-04-15T02:15:49;100288.28;;;6.22;89.25
79586;BME280;69054;50.866;4.636;2023-04-15T02:18:15;100290.00;;;6.23;89.24
79586;BME280;69054;50.866;4.636;2023-04-15T02:20:40;100285.94;;;6.19;89.33
79586;BME280;69054;50.866;4.636;2023-04-15T02:23:08;100290.34;;;6.20;89.24
79586;BME280;69054;50.866;4.636;2023-04-15T02:25:33;100295.94;;;6.18;89.59
79586;BME280;69054;50.866;4.636;2023-04-15T02:27:58;100301.56;;;6.17;90.35
79586;BME280;69054;50.866;4.636;2023-04-15T02:30:23;100311.56;;;6.16;90.19
79586;BME280;69054;50.866;4.636;2023-04-15T02:32:50;100315.31;;;6.15;89.98
79586;BME280;69054;50.866;4.636;2023-04-15T02:35:16;100315.66;;;6.12;89.97
79586;BME280;69054;50.866;4.636;2023-04-15T02:37:44;100321.91;;;6.13;89.65
79586;BME280;69054;50.866;4.636;2023-04-15T02:40:10;100324.44;;;6.14;89.73
79586;BME280;69054;50.866;4.636;2023-04-15T02:42:39;100333.63;;;6.13;89.38
79586;BME280;69054;50.866;4.636;2023-04-15T02:45:06;100331.94;;;6.12;90.15
79586;BME280;69054;50.866;4.636;2023-04-15T02:47:32;100333.81;;;6.12;90.81
79586;BME280;69054;50.866;4.636;2023-04-15T02:49:58;100332.28;;;6.09;90.56
79586;BME280;69054;50.866;4.636;2023-04-15T02:52:24;100331.63;;;6.07;90.82
79586;BME280;69054;50.866;4.636;2023-04-15T02:54:50;100339.09;;;6.05;90.50
79586;BME280;69054;50.866;4.636;2023-04-15T02:57:16;100346.22;;;6.06;90.71
79586;BME280;69054;50.866;4.636;2023-04-15T02:59:41;100351.59;;;6.14;90.53
79586;BME280;69054;50.866;4.636;2023-04-15T03:02:06;100354.28;;;6.14;90.17
79586;BME280;69054;50.866;4.636;2023-04-15T03:04:32;100360.41;;;6.16;89.73
79586;BME280;69054;50.866;4.636;2023-04-15T03:06:58;100353.28;;;6.15;90.22
79586;BME280;69054;50.866;4.636;2023-04-15T03:09:23;100358.34;;;6.18;90.14
79586;BME280;69054;50.866;4.636;2023-04-15T03:11:48;100361.53;;;6.22;90.04
79586;BME280;69054;50.866;4.636;2023-04-15T03:14:15;100363.59;;;6.20;90.77
79586;BME280;69054;50.866;4.636;2023-04-15T03:16:40;100360.41;;;6.16;90.34
79586;BME280;69054;50.866;4.636;2023-04-15T03:19:06;100367.03;;;6.14;90.38
79586;BME280;69054;50.866;4.636;2023-04-15T03:21:31;100373.66;;;6.11;91.04
79586;BME280;69054;50.866;4.636;2023-04-15T03:23:57;100373.81;;;6.10;90.94
79586;BME280;69054;50.866;4.636;2023-04-15T03:26:31;100371.28;;;6.08;90.94
79586;BME280;69054;50.866;4.636;2023-04-15T03:28:57;100366.19;;;6.13;90.91
79586;BME280;69054;50.866;4.636;2023-04-15T03:31:22;100377.34;;;6.18;90.23
79586;BME280;69054;50.866;4.636;2023-04-15T03:33:48;100382.59;;;6.20;90.81
79586;BME280;69054;50.866;4.636;2023-04-15T03:36:14;100378.34;;;6.17;90.71
79586;BME280;69054;50.866;4.636;2023-04-15T03:38:40;100388.50;;;6.24;91.47
79586;BME280;69054;50.866;4.636;2023-04-15T03:41:05;100387.78;;;6.30;91.14
79586;BME280;69054;50.866;4.636;2023-04-15T03:43:31;100386.59;;;6.32;90.80
79586;BME280;69054;50.866;4.636;2023-04-15T03:45:57;100388.13;;;6.35;91.11
79586;BME280;69054;50.866;4.636;2023-04-15T03:48:22;100391.84;;;6.34;90.83
79586;BME280;69054;50.866;4.636;2023-04-15T03:50:47;100391.56;;;6.29;90.78
79586;BME280;69054;50.866;4.636;2023-04-15T03:53:13;100389.38;;;6.24;90.99
79586;BME280;69054;50.866;4.636;2023-04-15T03:55:39;100388.50;;;6.24;91.69
79586;BME280;69054;50.866;4.636;2023-04-15T03:58:05;100387.50;;;6.25;91.92
79586;BME280;69054;50.866;4.636;2023-04-15T04:00:30;100388.50;;;6.24;91.74
79586;BME280;69054;50.866;4.636;2023-04-15T04:02:56;100391.94;;;6.17;91.40
79586;BME280;69054;50.866;4.636;2023-04-15T04:05:21;100390.91;;;6.18;92.17
79586;BME280;69054;50.866;4.636;2023-04-15T04:07:46;100392.25;;;6.22;91.92
79586;BME280;69054;50.866;4.636;2023-04-15T04:10:12;100389.00;;;6.27;91.59
79586;BME280;69054;50.866;4.636;2023-04-15T04:12:37;100388.84;;;6.29;90.99
79586;BME280;69054;50.866;4.636;2023-04-15T04:15:03;100383.72;;;6.34;90.64
79586;BME280;69054;50.866;4.636;2023-04-15T04:17:28;100388.13;;;6.35;90.12
79586;BME280;69054;50.866;4.636;2023-04-15T04:19:54;100393.22;;;6.30;89.94
79586;BME280;69054;50.866;4.636;2023-04-15T04:22:22;100395.81;;;6.23;90.09
79586;BME280;69054;50.866;4.636;2023-04-15T04:24:48;100387.53;;;6.16;90.73
79586;BME280;69054;50.866;4.636;2023-04-15T04:27:14;100395.34;;;6.11;90.29
79586;BME280;69054;50.866;4.636;2023-04-15T04:29:39;100397.03;;;6.12;90.97
79586;BME280;69054;50.866;4.636;2023-04-15T04:32:05;100403.13;;;6.14;90.52
79586;BME280;69054;50.866;4.636;2023-04-15T04:34:32;100408.72;;;6.13;91.20
79586;BME280;69054;50.866;4.636;2023-04-15T04:36:57;100417.22;;;6.10;91.39
79586;BME280;69054;50.866;4.636;2023-04-15T04:39:23;100417.75;;;6.05;90.93
79586;BME280;69054;50.866;4.636;2023-04-15T04:41:48;100418.75;;;6.04;90.42
79586;BME280;69054;50.866;4.636;2023-04-15T04:44:14;100414.69;;;6.08;90.85
79586;BME280;69054;50.866;4.636;2023-04-15T04:46:40;100423.81;;;6.15;90.47
79586;BME280;69054;50.866;4.636;2023-04-15T04:49:06;100430.94;;;6.16;90.10
79586;BME280;69054;50.866;4.636;2023-04-15T04:51:31;100442.81;;;6.15;90.25
79586;BME280;69054;50.866;4.636;2023-04-15T04:53:57;100444.88;;;6.13;89.90
79586;BME280;69054;50.866;4.636;2023-04-15T04:56:22;100445.88;;;6.12;89.79
79586;BME280;69054;50.866;4.636;2023-04-15T04:58:48;100451.97;;;6.14;89.33
79586;BME280;69054;50.866;4.636;2023-04-15T05:01:13;100456.88;;;6.19;88.29
79586;BME280;69054;50.866;4.636;2023-04-15T05:03:38;100459.56;;;6.27;88.17
79586;BME280;69054;50.866;4.636;2023-04-15T05:06:04;100462.09;;;6.29;87.51
79586;BME280;69054;50.866;4.636;2023-04-15T05:08:31;100466.31;;;6.31;87.84
79586;BME280;69054;50.866;4.636;2023-04-15T05:10:57;100466.81;;;6.35;87.20
79586;BME280;69054;50.866;4.636;2023-04-15T05:13:22;100486.31;;;6.38;87.64
79586;BME280;69054;50.866;4.636;2023-04-15T05:15:47;100488.19;;;6.38;87.56
79586;BME280;69054;50.866;4.636;2023-04-15T05:18:13;100488.00;;;6.39;86.70
79586;BME280;69054;50.866;4.636;2023-04-15T05:20:38;100496.47;;;6.45;86.10
79586;BME280;69054;50.866;4.636;2023-04-15T05:23:04;100504.44;;;6.46;85.42
79586;BME280;69054;50.866;4.636;2023-04-15T05:25:29;100498.81;;;6.48;86.22
79586;BME280;69054;50.866;4.636;2023-04-15T05:27:55;100483.88;;;6.52;85.10
79586;BME280;69054;50.866;4.636;2023-04-15T05:30:20;100506.78;;;6.57;85.45
79586;BME280;69054;50.866;4.636;2023-04-15T05:32:46;100523.41;;;6.54;85.69
79586;BME280;69054;50.866;4.636;2023-04-15T05:35:12;100525.44;;;6.52;85.42
79586;BME280;69054;50.866;4.636;2023-04-15T05:37:37;100531.22;;;6.57;85.52
79586;BME280;69054;50.866;4.636;2023-04-15T05:40:02;100537.28;;;6.60;85.37
79586;BME280;69054;50.866;4.636;2023-04-15T05:42:28;100532.91;;;6.59;84.68
79586;BME280;69054;50.866;4.636;2023-04-15T05:44:54;100542.53;;;6.61;83.83
79586;BME280;69054;50.866;4.636;2023-04-15T05:47:19;100543.25;;;6.63;83.32
79586;BME280;69054;50.866;4.636;2023-04-15T05:49:45;100545.44;;;6.68;83.94
79586;BME280;69054;50.866;4.636;2023-04-15T05:52:10;100535.34;;;6.77;83.44
79586;BME280;69054;50.866;4.636;2023-04-15T05:54:35;100531.75;;;6.84;82.91
79586;BME280;69054;50.866;4.636;2023-04-15T05:57:01;100549.72;;;6.93;82.63
79586;BME280;69054;50.866;4.636;2023-04-15T05:59:26;100560.88;;;6.99;82.21
79586;BME280;69054;50.866;4.636;2023-04-15T06:01:52;100556.28;;;6.99;81.32
79586;BME280;69054;50.866;4.636;2023-04-15T06:04:18;100568.97;;;7.07;79.37
79586;BME280;69054;50.866;4.636;2023-04-15T06:06:43;100568.59;;;7.18;77.87
79586;BME280;69054;50.866;4.636;2023-04-15T06:09:08;100573.13;;;7.26;78.16
79586;BME280;69054;50.866;4.636;2023-04-15T06:11:34;100572.72;;;7.37;77.94
79586;BME280;69054;50.866;4.636;2023-04-15T06:13:59;100573.88;;;7.43;76.14
79586;BME280;69054;50.866;4.636;2023-04-15T06:16:25;100572.31;;;7.49;75.73
79586;BME280;69054;50.866;4.636;2023-04-15T06:18:51;100579.00;;;7.61;76.65
79586;BME280;69054;50.866;4.636;2023-04-15T06:21:16;100585.59;;;7.67;75.90
79586;BME280;69054;50.866;4.636;2023-04-15T06:23:42;100591.78;;;7.60;75.67
79586;BME280;69054;50.866;4.636;2023-04-15T06:26:07;100584.03;;;7.72;74.65
79586;BME280;69054;50.866;4.636;2023-04-15T06:28:33;100587.84;;;7.86;74.57
79586;BME280;69054;50.866;4.636;2023-04-15T06:30:58;100596.28;;;7.91;73.50
79586;BME280;69054;50.866;4.636;2023-04-15T06:33:24;100609.16;;;7.97;72.70
79586;BME280;69054;50.866;4.636;2023-04-15T06:35:49;100610.84;;;7.98;73.56
79586;BME280;69054;50.866;4.636;2023-04-15T06:38:15;100609.56;;;8.09;73.52
79586;BME280;69054;50.866;4.636;2023-04-15T06:40:40;100612.56;;;8.14;72.05
79586;BME280;69054;50.866;4.636;2023-04-15T06:43:06;100612.25;;;8.32;71.14
79586;BME280;69054;50.866;4.636;2023-04-15T06:45:32;100603.75;;;8.50;69.02
79586;BME280;69054;50.866;4.636;2023-04-15T06:47:57;100608.94;;;8.75;69.57
79586;BME280;69054;50.866;4.636;2023-04-15T06:50:22;100607.50;;;9.09;70.24
79586;BME280;69054;50.866;4.636;2023-04-15T06:52:48;100604.91;;;9.37;67.07
79586;BME280;69054;50.866;4.636;2023-04-15T06:55:13;100621.16;;;9.67;65.25
79586;BME280;69054;50.866;4.636;2023-04-15T06:57:39;100622.34;;;10.01;65.41
79586;BME280;69054;50.866;4.636;2023-04-15T07:00:05;100626.88;;;10.37;63.82
79586;BME280;69054;50.866;4.636;2023-04-15T07:02:31;100630.16;;;10.89;61.51
79586;BME280;69054;50.866;4.636;2023-04-15T07:04:57;100628.63;;;11.15;59.38
79586;BME280;69054;50.866;4.636;2023-04-15T07:07:22;100639.28;;;11.45;59.90
79586;BME280;69054;50.866;4.636;2023-04-15T07:09:48;100640.81;;;11.67;58.58
79586;BME280;69054;50.866;4.636;2023-04-15T07:12:15;100649.75;;;11.96;58.47
79586;BME280;69054;50.866;4.636;2023-04-15T07:14:40;100654.50;;;11.67;58.33
79586;BME280;69054;50.866;4.636;2023-04-15T07:17:05;100656.50;;;11.39;58.08
79586;BME280;69054;50.866;4.636;2023-04-15T07:19:31;100653.72;;;11.25;58.64
79586;BME280;69054;50.866;4.636;2023-04-15T07:21:56;100663.16;;;11.84;57.72
79586;BME280;69054;50.866;4.636;2023-04-15T07:24:22;100667.59;;;11.85;56.72
79586;BME280;69054;50.866;4.636;2023-04-15T07:26:51;100682.59;;;12.03;58.00
79586;BME280;69054;50.866;4.636;2023-04-15T07:29:16;100679.03;;;12.63;53.73
79586;BME280;69054;50.866;4.636;2023-04-15T07:31:41;100682.00;;;13.60;53.16
79586;BME280;69054;50.866;4.636;2023-04-15T07:34:07;100688.91;;;14.40;51.08
79586;BME280;69054;50.866;4.636;2023-04-15T07:36:32;100696.38;;;15.08;49.10
79586;BME280;69054;50.866;4.636;2023-04-15T07:38:59;100700.09;;;15.14;47.22
79586;BME280;69054;50.866;4.636;2023-04-15T07:41:27;100698.41;;;16.17;45.23
79586;BME280;69054;50.866;4.636;2023-04-15T07:43:53;100712.69;;;15.95;44.97
79586;BME280;69054;50.866;4.636;2023-04-15T07:46:18;100709.16;;;14.96;46.07
79586;BME280;69054;50.866;4.636;2023-04-15T07:48:43;100710.09;;;14.64;48.08
79586;BME280;69054;50.866;4.636;2023-04-15T07:51:09;100717.59;;;14.50;48.46
79586;BME280;69054;50.866;4.636;2023-04-15T07:53:35;100717.22;;;13.76;50.92
79586;BME280;69054;50.866;4.636;2023-04-15T07:56:00;100716.06;;;13.45;52.60
79586;BME280;69054;50.866;4.636;2023-04-15T07:58:25;100728.28;;;13.49;52.11
79586;BME280;69054;50.866;4.636;2023-04-15T08:00:51;100726.19;;;14.29;48.97
79586;BME280;69054;50.866;4.636;2023-04-15T08:03:18;100730.00;;;14.85;46.71
79586;BME280;69054;50.866;4.636;2023-04-15T08:05:43;100731.44;;;16.05;43.80
79586;BME280;69054;50.866;4.636;2023-04-15T08:08:09;100726.97;;;17.00;41.69
79586;BME280;69054;50.866;4.636;2023-04-15T08:10:35;100733.94;;;17.27;39.92
79586;BME280;69054;50.866;4.636;2023-04-15T08:13:01;100739.06;;;17.99;38.14
79586;BME280;69054;50.866;4.636;2023-04-15T08:15:26;100739.63;;;17.61;36.12
79586;BME280;69054;50.866;4.636;2023-04-15T08:17:52;100747.97;;;17.89;36.63
79586;BME280;69054;50.866;4.636;2023-04-15T08:20:17;100747.81;;;18.37;35.47
79586;BME280;69054;50.866;4.636;2023-04-15T08:22:43;100753.91;;;19.41;34.69
79586;BME280;69054;50.866;4.636;2023-04-15T08:25:09;100761.19;;;18.28;35.36
79586;BME280;69054;50.866;4.636;2023-04-15T08:27:34;100769.72;;;18.26;36.46
79586;BME280;69054;50.866;4.636;2023-04-15T08:30:00;100767.16;;;19.00;34.71
79586;BME280;69054;50.866;4.636;2023-04-15T08:32:25;100779.66;;;19.02;35.24
79586;BME280;69054;50.866;4.636;2023-04-15T08:34:51;100775.56;;;18.13;35.62
79586;BME280;69054;50.866;4.636;2023-04-15T08:37:17;100787.00;;;18.79;36.10
79586;BME280;69054;50.866;4.636;2023-04-15T08:39:42;100782.13;;;18.70;34.98
79586;BME280;69054;50.866;4.636;2023-04-15T08:42:16;100784.19;;;17.64;35.60
79586;BME280;69054;50.866;4.636;2023-04-15T08:44:42;100796.19;;;18.22;35.92
79586;BME280;69054;50.866;4.636;2023-04-15T08:47:12;100799.69;;;18.47;33.21
79586;BME280;69054;50.866;4.636;2023-04-15T08:49:41;100803.69;;;18.10;35.11
79586;BME280;69054;50.866;4.636;2023-04-15T08:52:07;100801.84;;;17.75;35.91
79586;BME280;69054;50.866;4.636;2023-04-15T08:54:34;100813.13;;;17.62;36.58
79586;BME280;69054;50.866;4.636;2023-04-15T08:57:00;100815.19;;;18.31;34.21
79586;BME280;69054;50.866;4.636;2023-04-15T08:59:29;100824.63;;;18.63;34.40
79586;BME280;69054;50.866;4.636;2023-04-15T09:01:56;100825.72;;;19.81;34.39
79586;BME280;69054;50.866;4.636;2023-04-15T09:04:22;100834.59;;;19.10;33.18
79586;BME280;69054;50.866;4.636;2023-04-15T09:06:48;100833.78;;;19.10;32.84
79586;BME280;69054;50.866;4.636;2023-04-15T09:09:13;100839.91;;;18.37;33.90
79586;BME280;69054;50.866;4.636;2023-04-15T09:11:39;100848.94;;;18.61;35.35
79586;BME280;69054;50.866;4.636;2023-04-15T09:14:04;100851.56;;;18.39;33.64
79586;BME280;69054;50.866;4.636;2023-04-15T09:16:30;100858.50;;;18.54;35.63
79586;BME280;69054;50.866;4.636;2023-04-15T09:18:55;100860.19;;;18.55;35.73
79586;BME280;69054;50.866;4.636;2023-04-15T09:21:22;100854.69;;;17.90;34.54
79586;BME280;69054;50.866;4.636;2023-04-15T09:23:58;100859.13;;;19.02;34.26
79586;BME280;69054;50.866;4.636;2023-04-15T09:26:35;100869.03;;;19.31;34.55
79586;BME280;69054;50.866;4.636;2023-04-15T09:29:05;100878.41;;;18.96;33.63
79586;BME280;69054;50.866;4.636;2023-04-15T09:31:31;100872.03;;;18.96;33.47
79586;BME280;69054;50.866;4.636;2023-04-15T09:33:57;100874.06;;;17.90;36.08
79586;BME280;69054;50.866;4.636;2023-04-15T09:36:22;100874.25;;;18.24;36.24
79586;BME280;69054;50.866;4.636;2023-04-15T09:38:56;100895.53;;;18.53;36.79
79586;BME280;69054;50.866;4.636;2023-04-15T09:41:22;100894.47;;;18.54;34.55
79586;BME280;69054;50.866;4.636;2023-04-15T09:43:48;100903.94;;;18.99;33.11
79586;BME280;69054;50.866;4.636;2023-04-15T09:46:13;100912.50;;;19.31;32.65
79586;BME280;69054;50.866;4.636;2023-04-15T09:48:39;100916.69;;;20.24;32.64
79586;BME280;69054;50.866;4.636;2023-04-15T09:51:04;100917.88;;;19.72;31.86
79586;BME280;69054;50.866;4.636;2023-04-15T09:53:35;100922.06;;;19.57;32.35
79586;BME280;69054;50.866;4.636;2023-04-15T09:56:01;100923.06;;;18.19;34.30
79586;BME280;69054;50.866;4.636;2023-04-15T09:58:29;100919.66;;;18.69;34.07
79586;BME280;69054;50.866;4.636;2023-04-15T10:00:56;100928.09;;;19.03;34.07
79586;BME280;69054;50.866;4.636;2023-04-15T10:03:27;100937.91;;;18.82;35.83
79586;BME280;69054;50.866;4.636;2023-04-15T10:05:55;100937.50;;;18.61;34.69
79586;BME280;69054;50.866;4.636;2023-04-15T10:08:29;100954.63;;;19.16;31.43
79586;BME280;69054;50.866;4.636;2023-04-15T10:10:59;100958.16;;;20.30;31.40
79586;BME280;69054;50.866;4.636;2023-04-15T10:13:29;100953.03;;;20.88;30.80
79586;BME280;69054;50.866;4.636;2023-04-15T10:15:59;100962.94;;;20.79;29.17
79586;BME280;69054;50.866;4.636;2023-04-15T10:18:26;100957.75;;;20.21;31.08
79586;BME280;69054;50.866;4.636;2023-04-15T10:20:52;100961.88;;;19.51;30.73
79586;BME280;69054;50.866;4.636;2023-04-15T10:23:19;100962.38;;;20.16;30.83
79586;BME280;69054;50.866;4.636;2023-04-15T10:25:46;100962.84;;;21.23;29.56
79586;BME280;69054;50.866;4.636;2023-04-15T10:28:12;100968.78;;;21.32;29.92
79586;BME280;69054;50.866;4.636;2023-04-15T10:30:38;100970.69;;;19.48;30.30
79586;BME280;69054;50.866;4.636;2023-04-15T10:33:04;100966.75;;;20.12;30.55
79586;BME280;69054;50.866;4.636;2023-04-15T10:35:31;100971.19;;;20.96;29.55
79586;BME280;69054;50.866;4.636;2023-04-15T10:37:58;100978.78;;;20.62;28.82
79586;BME280;69054;50.866;4.636;2023-04-15T10:40:28;100991.25;;;20.37;28.11
79586;BME280;69054;50.866;4.636;2023-04-15T10:42:56;100988.50;;;19.52;28.68
79586;BME280;69054;50.866;4.636;2023-04-15T10:45:25;101002.16;;;20.05;30.60
79586;BME280;69054;50.866;4.636;2023-04-15T10:47:55;101003.53;;;20.24;27.40
79586;BME280;69054;50.866;4.636;2023-04-15T10:50:21;101004.13;;;20.65;26.28
79586;BME280;69054;50.866;4.636;2023-04-15T10:52:49;101009.28;;;20.00;26.11
79586;BME280;69054;50.866;4.636;2023-04-15T10:55:21;101004.63;;;20.62;28.23
79586;BME280;69054;50.866;4.636;2023-04-15T10:57:51;101012.06;;;21.01;26.68
79586;BME280;69054;50.866;4.636;2023-04-15T11:00:18;101005.03;;;21.20;27.19
79586;BME280;69054;50.866;4.636;2023-04-15T11:02:52;101012.84;;;21.78;26.10
79586;BME280;69054;50.866;4.636;2023-04-15T11:05:19;101018.72;;;20.78;22.93
79586;BME280;69054;50.866;4.636;2023-04-15T11:12:47;101013.16;;;19.82;21.47
79586;BME280;69054;50.866;4.636;2023-04-15T11:15:37;101022.84;;;20.75;23.03
79586;BME280;69054;50.866;4.636;2023-04-15T11:18:09;101017.63;;;20.79;23.30
79586;BME280;69054;50.866;4.636;2023-04-15T11:20:36;101025.03;;;20.95;23.78
79586;BME280;69054;50.866;4.636;2023-04-15T11:23:03;101029.13;;;21.37;23.40
79586;BME280;69054;50.866;4.636;2023-04-15T11:25:31;101021.94;;;20.91;24.09
79586;BME280;69054;50.866;4.636;2023-04-15T11:27:58;101024.91;;;21.34;24.01
79586;BME280;69054;50.866;4.636;2023-04-15T11:30:29;101030.94;;;21.80;20.76
79586;BME280;69054;50.866;4.636;2023-04-15T11:33:01;101040.09;;;21.49;22.52
79586;BME280;69054;50.866;4.636;2023-04-15T11:35:27;101046.00;;;21.57;20.80
79586;BME280;69054;50.866;4.636;2023-04-15T11:37:53;101045.13;;;21.02;22.89
79586;BME280;69054;50.866;4.636;2023-04-15T11:40:23;101042.75;;;21.98;22.27
79586;BME280;69054;50.866;4.636;2023-04-15T11:43:09;101036.22;;;21.50;22.83
79586;BME280;69054;50.866;4.636;2023-04-15T11:45:36;101050.03;;;20.73;25.25
79586;BME280;69054;50.866;4.636;2023-04-15T11:50:32;101051.97;;;20.95;21.91
79586;BME280;69054;50.866;4.636;2023-04-15T11:52:59;101063.97;;;21.72;23.10
79586;BME280;69054;50.866;4.636;2023-04-15T11:55:26;101062.00;;;21.72;21.71
79586;BME280;69054;50.866;4.636;2023-04-15T12:00:37;101065.75;;;22.21;22.91
79586;BME280;69054;50.866;4.636;2023-04-15T12:03:16;101081.94;;;23.19;21.87
79586;BME280;69054;50.866;4.636;2023-04-15T12:06:05;101082.00;;;22.77;23.01
79586;BME280;69054;50.866;4.636;2023-04-15T12:09:10;101095.16;;;22.92;19.29
79586;BME280;69054;50.866;4.636;2023-04-15T12:11:47;101092.28;;;23.24;19.39
79586;BME280;69054;50.866;4.636;2023-04-15T12:16:50;101092.34;;;21.24;20.55
79586;BME280;69054;50.866;4.636;2023-04-15T12:19:22;101098.28;;;21.11;22.05
79586;BME280;69054;50.866;4.636;2023-04-15T12:21:48;101108.88;;;21.14;21.40
79586;BME280;69054;50.866;4.636;2023-04-15T12:24:14;101108.66;;;21.43;21.87
79586;BME280;69054;50.866;4.636;2023-04-15T12:26:45;101099.72;;;21.63;21.08
79586;BME280;69054;50.866;4.636;2023-04-15T12:29:12;101120.81;;;22.13;21.71
79586;BME280;69054;50.866;4.636;2023-04-15T12:31:52;101125.75;;;22.06;21.58
79586;BME280;69054;50.866;4.636;2023-04-15T12:34:39;101115.47;;;22.12;22.00
79586;BME280;69054;50.866;4.636;2023-04-15T12:37:06;101125.56;;;23.67;20.54
79586;BME280;69054;50.866;4.636;2023-04-15T12:39:38;101127.78;;;23.60;19.18
79586;BME280;69054;50.866;4.636;2023-04-15T12:42:05;101138.81;;;22.76;17.23
79586;BME280;69054;50.866;4.636;2023-04-15T12:44:32;101143.72;;;22.26;17.77
79586;BME280;69054;50.866;4.636;2023-04-15T12:46:57;101141.25;;;21.97;18.21
79586;BME280;69054;50.866;4.636;2023-04-15T12:49:24;101151.34;;;22.73;17.95
79586;BME280;69054;50.866;4.636;2023-04-15T12:51:52;101153.69;;;22.22;18.86
79586;BME280;69054;50.866;4.636;2023-04-15T12:54:19;101150.25;;;22.09;19.96
79586;BME280;69054;50.866;4.636;2023-04-15T12:56:45;101140.16;;;21.49;20.76
79586;BME280;69054;50.866;4.636;2023-04-15T12:59:11;101156.13;;;21.14;21.84
79586;BME280;69054;50.866;4.636;2023-04-15T13:01:37;101143.75;;;21.98;20.70
79586;BME280;69054;50.866;4.636;2023-04-15T13:04:03;101146.16;;;21.40;22.10
79586;BME280;69054;50.866;4.636;2023-04-15T13:06:28;101151.75;;;20.28;24.78